Lawnside, New Jersey
Current Conditions -  °F | °C
As of 9:54 AM on Tuesday 21 Oct 2014 (Local Time) from KVAY Reporting Station
Broken Clouds Broken Clouds  
Wind Chill: 55°   Ceiling: 7500
Heat Index: 55°   Visibility: 10mi
Dew Point: 50°   Wind: 0mph
Humidity: 83%   Direction: NA
Pressure: 29.89"   Gusts: NA
Location:  39.87°N, 75.03°W
Report Text: KVAY 211354Z AUTO 00000KT 10SM BKN075 13/10 A2989 RMK AO2 SLP119 T01280100
Loading
Personal Weather Stations






























Interactive Weather Map
Tropical Storm Tracking
New forecast layout! Learn more

10-Day Weather Forecast

Advertisements
Track Severe Weather on mobile